Time;durP1;ratioP1;P1;durP2;ratioP2;P2;SDS_P1;SDS_P2;PMS_P1;PMS_P2;Temp;Humidity;BMP_temperature;BMP_pressure;BME280_temperature;BME280_humidity;BME280_pressure;Samples;Min_cycle;Max_cycle;Signal;HPM_P1;HPM_P2
2022/03/16 00:00:12;;;;;;;5.03;2.50;;;;;;;-0.14;58.18;102042.48;1732946;81;21230;-68
2022/03/16 00:02:39;;;;;;;4.85;2.50;;;;;;;-0.17;57.93;102043.27;1723210;83;21063;-67
2022/03/16 00:05:08;;;;;;;5.42;2.30;;;;;;;-0.22;57.84;102041.59;1722547;83;21248;-68
2022/03/16 00:07:36;;;;;;;4.00;2.10;;;;;;;-0.30;57.47;102052.33;1722289;83;21550;-67
2022/03/16 00:10:07;;;;;;;4.15;2.00;;;;;;;-0.30;57.47;102052.33;1733621;81;21027;-66
2022/03/16 00:12:36;;;;;;;7.37;2.30;;;;;;;-0.32;57.37;102049.05;1732759;81;21051;-67
2022/03/16 00:15:04;;;;;;;5.70;2.40;;;;;;;-0.36;57.42;102055.57;1733874;81;21593;-68
2022/03/16 00:17:32;;;;;;;5.75;2.47;;;;;;;-0.36;57.42;102055.57;1733425;81;21181;-67
2022/03/16 00:19:59;;;;;;;5.45;2.42;;;;;;;-0.36;57.18;102052.09;1734551;81;20988;-67
2022/03/16 00:22:26;;;;;;;6.05;2.40;;;;;;;-0.40;57.16;102045.00;1739219;81;21044;-67
2022/03/16 00:24:52;;;;;;;4.55;2.27;;;;;;;-0.41;57.13;102046.48;1754474;81;21068;-68
2022/03/16 00:27:20;;;;;;;5.97;2.45;;;;;;;-0.44;57.16;102043.66;1754239;81;21859;-68
2022/03/16 00:29:47;;;;;;;5.55;2.42;;;;;;;-0.47;57.19;102041.33;1733454;81;21171;-68
2022/03/16 00:32:14;;;;;;;5.20;2.05;;;;;;;-0.45;57.11;102052.52;1741401;81;21539;-67
2022/03/16 00:34:42;;;;;;;4.47;2.40;;;;;;;-0.47;57.03;102043.95;1738948;81;20980;-68
2022/03/16 00:37:09;;;;;;;5.67;2.72;;;;;;;-0.48;57.01;102044.44;1740604;81;21502;-67
2022/03/16 00:39:38;;;;;;;4.65;2.00;;;;;;;-0.51;56.95;102043.91;1740723;81;21083;-67
2022/03/16 00:42:07;;;;;;;5.22;2.20;;;;;;;-0.54;56.82;102045.52;1735396;81;21914;-67
2022/03/16 00:44:35;;;;;;;5.40;2.33;;;;;;;-0.58;56.67;102048.92;1735639;81;21776;-67
2022/03/16 00:47:05;;;;;;;4.62;2.00;;;;;;;-0.60;56.69;102042.16;1733318;81;21017;-68
2022/03/16 00:49:32;;;;;;;6.12;2.47;;;;;;;-0.64;56.59;102040.81;1739185;81;21103;-67
2022/03/16 00:52:01;;;;;;;4.08;2.00;;;;;;;-0.64;56.59;102040.81;1741477;81;21074;-68
2022/03/16 00:54:30;;;;;;;4.17;2.10;;;;;;;-0.65;56.81;102041.80;1749682;81;21087;-67
2022/03/16 00:56:58;;;;;;;3.45;1.98;;;;;;;-0.68;56.80;102046.02;1754352;81;21417;-67
2022/03/16 00:59:32;;;;;;;3.83;1.80;;;;;;;-0.67;56.81;102050.29;1745281;81;21095;-68
2022/03/16 01:02:00;;;;;;;4.70;2.20;;;;;;;-0.71;56.77;102049.27;1748553;81;21107;-67
2022/03/16 01:04:31;;;;;;;5.08;1.92;;;;;;;-0.74;56.78;102049.55;1746008;81;21174;-67
2022/03/16 01:06:59;;;;;;;5.17;2.40;;;;;;;-0.74;56.80;102047.42;1500121;80;10000804;-67
2022/03/16 01:09:28;;;;;;;4.40;2.15;;;;;;;-0.74;56.77;102043.00;1728259;82;21180;-67
2022/03/16 01:11:56;;;;;;;5.05;2.20;;;;;;;-0.74;56.76;102046.93;1730191;81;21010;-68
2022/03/16 01:14:23;;;;;;;4.90;1.77;;;;;;;-0.76;56.79;102046.73;1741045;82;21148;-68
2022/03/16 01:16:53;;;;;;;4.17;2.02;;;;;;;-0.80;56.81;102035.70;1727485;82;21482;-67
2022/03/16 01:19:21;;;;;;;3.62;1.70;;;;;;;-0.83;56.78;102039.11;1735629;82;21088;-68
2022/03/16 01:21:49;;;;;;;3.90;1.80;;;;;;;-0.85;56.78;102038.45;1708286;82;21120;-68
2022/03/16 01:24:17;;;;;;;4.25;1.75;;;;;;;-0.89;56.78;102033.95;1733790;82;21068;-69
2022/03/16 01:26:45;;;;;;;4.03;2.00;;;;;;;-0.89;56.72;102035.75;1693324;83;21706;-69
2022/03/16 01:29:12;;;;;;;4.00;1.90;;;;;;;-0.91;56.69;102027.22;1723847;82;21064;-68
2022/03/16 01:31:40;;;;;;;3.40;1.50;;;;;;;-0.92;56.71;102043.45;1703127;84;21658;-69
2022/03/16 01:34:07;;;;;;;3.85;1.87;;;;;;;-0.95;56.77;102035.86;1728933;80;21113;-66
2022/03/16 01:36:34;;;;;;;4.47;1.90;;;;;;;-1.00;56.91;102036.77;1764410;81;21053;-71
2022/03/16 01:39:01;;;;;;;4.17;1.82;;;;;;;-1.02;57.03;102036.08;1742320;80;21259;-68
2022/03/16 01:41:30;;;;;;;3.65;1.95;;;;;;;-1.02;57.14;102040.86;1771595;80;21050;-67
2022/03/16 01:43:59;;;;;;;4.28;2.00;;;;;;;-1.05;57.24;102027.22;1771312;80;21552;-67
2022/03/16 01:46:28;;;;;;;3.45;1.55;;;;;;;-1.06;57.34;102028.16;1754674;79;21010;-67
2022/03/16 01:49:00;;;;;;;3.55;2.00;;;;;;;-1.11;57.35;102030.41;1775427;80;21608;-67
2022/03/16 01:51:27;;;;;;;3.33;1.60;;;;;;;-1.12;57.38;102032.18;1776558;79;21057;-69
2022/03/16 01:53:56;;;;;;;3.40;1.65;;;;;;;-1.16;57.56;102036.55;1756556;80;21554;-68
2022/03/16 01:56:23;;;;;;;4.42;1.65;;;;;;;-1.19;57.79;102039.80;1769520;80;20987;-67
2022/03/16 01:58:50;;;;;;;3.27;1.62;;;;;;;-1.22;57.93;102036.17;1775054;80;21664;-68
2022/03/16 02:01:19;;;;;;;3.95;1.75;;;;;;;-1.25;58.02;102040.39;1773498;80;21584;-69
2022/03/16 02:03:47;;;;;;;3.70;1.70;;;;;;;-1.27;58.12;102038.38;1776062;80;21534;-69
2022/03/16 02:06:16;;;;;;;2.90;1.50;;;;;;;-1.26;58.15;102041.83;1766423;80;21062;-69
2022/03/16 02:08:45;;;;;;;3.80;1.90;;;;;;;-1.28;58.21;102041.98;1770067;80;21818;-67
2022/03/16 02:11:12;;;;;;;3.98;1.60;;;;;;;-1.27;58.23;102041.00;1634033;83;21058;-68
2022/03/16 02:13:41;;;;;;;4.03;1.60;;;;;;;-1.25;58.28;102048.72;1738365;82;21080;-68
2022/03/16 02:16:12;;;;;;;3.83;1.52;;;;;;;-1.28;58.32;102045.09;1717364;82;21188;-69
2022/03/16 02:18:39;;;;;;;3.67;1.47;;;;;;;-1.31;58.32;102049.31;1737377;82;21048;-69
2022/03/16 02:21:06;;;;;;;2.70;1.35;;;;;;;-1.30;58.27;102050.46;1713421;82;21103;-68
2022/03/16 02:23:35;;;;;;;2.37;1.22;;;;;;;-1.27;58.18;102046.25;1737237;81;21107;-69
2022/03/16 02:26:02;;;;;;;4.53;1.60;;;;;;;-1.32;58.12;102041.91;1738367;82;21092;-68
2022/03/16 02:28:31;;;;;;;3.15;1.40;;;;;;;-1.35;58.12;102047.91;1727075;82;21059;-67
2022/03/16 02:31:02;;;;;;;2.90;1.37;;;;;;;-1.37;58.17;102044.14;1706785;82;21111;-67
2022/03/16 02:33:31;;;;;;;3.05;1.50;;;;;;;-1.36;58.18;102041.85;1734531;82;22387;-66
2022/03/16 02:35:58;;;;;;;4.22;1.60;;;;;;;-1.39;58.25;102050.00;1741529;82;21173;-67
2022/03/16 02:38:26;;;;;;;3.12;1.40;;;;;;;-1.43;58.37;102047.33;1739142;82;22116;-67
2022/03/16 02:40:54;;;;;;;2.45;1.20;;;;;;;-1.47;58.49;102053.33;1737958;82;21087;-67
2022/03/16 02:43:24;;;;;;;2.87;1.30;;;;;;;-1.52;58.66;102054.23;1728659;82;21079;-68
2022/03/16 02:45:51;;;;;;;2.55;1.30;;;;;;;-1.54;58.79;102056.67;1703473;83;21053;-68
2022/03/16 02:48:21;;;;;;;3.60;1.30;;;;;;;-1.56;58.91;102055.48;1722768;83;21569;-67
2022/03/16 02:50:49;;;;;;;3.08;1.20;;;;;;;-1.54;59.04;102050.12;1730517;82;21072;-68
2022/03/16 02:53:15;;;;;;;2.83;1.30;;;;;;;-1.56;59.22;102045.00;1736270;82;21250;-68
2022/03/16 02:55:46;;;;;;;4.03;1.52;;;;;;;-1.58;59.29;102047.41;1737945;82;21063;-67
2022/03/16 02:58:15;;;;;;;2.75;1.30;;;;;;;-1.58;59.31;102043.48;1738615;82;21068;-66
2022/03/16 03:00:47;;;;;;;2.87;1.30;;;;;;;-1.58;59.36;102055.27;1737746;82;21650;-67
2022/03/16 03:03:15;;;;;;;3.12;1.40;;;;;;;-1.61;59.48;102047.69;1730113;82;21131;-66
2022/03/16 03:05:42;;;;;;;3.00;1.30;;;;;;;-1.61;59.51;102045.07;1736648;82;21428;-67
2022/03/16 03:08:09;;;;;;;2.95;1.40;;;;;;;-1.62;59.56;102046.87;1737254;82;21107;-68
2022/03/16 03:10:40;;;;;;;2.85;1.30;;;;;;;-1.64;59.58;102051.44;1737850;82;21071;-68
2022/03/16 03:13:07;;;;;;;3.75;1.57;;;;;;;-1.65;59.58;102052.39;1735491;82;21096;-68
2022/03/16 03:15:37;;;;;;;3.12;1.50;;;;;;;-1.70;59.64;102046.75;1736598;82;21076;-68
2022/03/16 03:18:05;;;;;;;2.92;1.30;;;;;;;-1.72;59.68;102051.30;1717984;82;22474;-68
2022/03/16 03:20:32;;;;;;;3.70;1.70;;;;;;;-1.70;59.70;102046.27;1727006;82;21166;-67
2022/03/16 03:23:01;;;;;;;2.65;1.25;;;;;;;-1.71;59.72;102051.17;1726859;82;21572;-67
2022/03/16 03:25:28;;;;;;;4.97;1.52;;;;;;;-1.72;59.72;102050.81;1738351;82;21532;-67
2022/03/16 03:27:55;;;;;;;4.12;1.42;;;;;;;-1.75;59.77;102054.19;1738281;82;21021;-66
2022/03/16 03:30:22;;;;;;;2.25;1.17;;;;;;;-1.81;59.88;102054.28;1715941;82;21312;-66
2022/03/16 03:32:50;;;;;;;2.87;1.50;;;;;;;-1.86;59.99;102055.17;1728120;82;21068;-67
2022/03/16 03:35:17;;;;;;;3.40;1.40;;;;;;;-1.90;60.08;102059.04;1738237;82;20945;-67
2022/03/16 03:37:44;;;;;;;2.92;1.30;;;;;;;-1.95;60.21;102050.75;1738155;82;21075;-67
2022/03/16 03:40:11;;;;;;;3.65;1.27;;;;;;;-1.95;60.35;102058.61;1717978;80;21667;-67
2022/03/16 03:42:40;;;;;;;2.87;1.50;;;;;;;-1.97;60.41;102059.25;1713110;82;21637;-66
2022/03/16 03:45:08;;;;;;;3.52;1.37;;;;;;;-1.97;60.45;102064.00;1734874;82;21184;-66
2022/03/16 03:47:35;;;;;;;2.70;1.40;;;;;;;-1.95;60.52;102065.16;1738191;82;21405;-67
2022/03/16 03:50:05;;;;;;;3.40;1.50;;;;;;;-1.97;60.57;102067.11;1737842;82;21631;-69
2022/03/16 03:52:32;;;;;;;4.67;2.10;;;;;;;-2.02;60.64;102064.88;1725005;82;21092;-67
2022/03/16 03:55:05;;;;;;;4.53;1.60;;;;;;;-2.03;60.71;102065.03;1731765;81;21131;-67
2022/03/16 03:57:32;;;;;;;3.65;1.17;;;;;;;-2.06;60.76;102064.81;1736938;82;21080;-68
2022/03/16 03:59:59;;;;;;;3.92;1.72;;;;;;;-2.09;60.87;102062.47;1740322;82;21028;-66
2022/03/16 04:02:36;;;;;;;3.22;1.40;;;;;;;-2.10;60.95;102073.09;1731329;82;21092;-66
2022/03/16 04:05:04;;;;;;;3.55;1.55;;;;;;;-2.14;61.06;102074.67;1732270;82;21100;-66
2022/03/16 04:07:32;;;;;;;4.35;1.62;;;;;;;-2.18;61.26;102074.58;1734039;82;21829;-66
2022/03/16 04:09:59;;;;;;;4.28;1.50;;;;;;;-2.20;61.48;102072.59;1730626;82;21189;-67
2022/03/16 04:12:26;;;;;;;3.72;1.80;;;;;;;-2.21;61.64;102071.41;1738436;82;21056;-68
2022/03/16 04:14:54;;;;;;;3.60;1.40;;;;;;;-2.21;61.74;102067.48;1734532;81;21060;-68
2022/03/16 04:17:24;;;;;;;3.58;1.70;;;;;;;-2.20;61.79;102073.91;1738316;82;21072;-68
2022/03/16 04:19:51;;;;;;;3.85;1.60;;;;;;;-2.20;61.88;102076.52;1717996;80;21251;-69
2022/03/16 04:22:19;;;;;;;3.10;1.50;;;;;;;-2.20;61.95;102077.01;1724090;82;21073;-67
2022/03/16 04:24:47;;;;;;;4.55;1.70;;;;;;;-2.19;62.04;102068.18;1724549;82;21593;-67
2022/03/16 04:27:14;;;;;;;3.72;1.85;;;;;;;-2.18;62.11;102075.88;1738291;82;21075;-68
2022/03/16 04:29:42;;;;;;;4.75;1.98;;;;;;;-2.17;62.14;102081.97;1738000;82;21595;-67
2022/03/16 04:32:09;;;;;;;4.20;1.70;;;;;;;-2.19;62.25;102078.16;1737786;82;21556;-67
2022/03/16 04:34:36;;;;;;;3.87;1.82;;;;;;;-2.16;62.33;102071.84;1710174;82;21091;-67
2022/03/16 04:37:05;;;;;;;4.10;1.80;;;;;;;-2.14;62.40;102076.44;1734886;82;21119;-67
2022/03/16 04:39:32;;;;;;;4.85;1.80;;;;;;;-2.14;62.55;102082.98;1738470;82;21076;-66
2022/03/16 04:41:59;;;;;;;3.42;1.65;;;;;;;-2.13;62.65;102080.73;1734040;82;21084;-67
2022/03/16 04:44:27;;;;;;;3.83;1.80;;;;;;;-2.10;62.68;102083.56;1726933;82;21195;-67
2022/03/16 04:46:54;;;;;;;4.20;1.92;;;;;;;-2.03;62.71;102082.88;1735795;82;21690;-67
2022/03/16 04:49:21;;;;;;;3.65;1.67;;;;;;;-1.99;62.67;102086.04;1738695;82;21122;-68
2022/03/16 04:51:49;;;;;;;4.45;2.00;;;;;;;-1.95;62.69;102087.41;1738136;82;21064;-67
2022/03/16 04:54:16;;;;;;;4.28;1.98;;;;;;;-1.92;62.69;102085.34;1737767;82;21059;-68
2022/03/16 04:56:45;;;;;;;3.45;1.65;;;;;;;-1.86;62.69;102086.59;1716361;82;21841;-68
2022/03/16 04:59:11;;;;;;;3.80;2.08;;;;;;;-1.82;62.66;102083.22;1725446;81;21542;-68
2022/03/16 05:01:39;;;;;;;3.77;1.80;;;;;;;-1.80;62.66;102084.74;1731476;82;21072;-68
2022/03/16 05:04:06;;;;;;;4.67;2.22;;;;;;;-1.76;62.63;102087.91;1731202;82;22211;-68
2022/03/16 05:06:34;;;;;;;3.77;1.70;;;;;;;-1.70;62.59;102086.05;1735488;81;21108;-68
2022/03/16 05:09:04;;;;;;;4.65;1.82;;;;;;;-1.64;62.60;102088.12;1740546;82;20953;-67
2022/03/16 05:11:34;;;;;;;4.10;1.77;;;;;;;-1.56;62.58;102088.72;1722807;82;20977;-67
2022/03/16 05:14:03;;;;;;;3.72;1.70;;;;;;;-1.48;62.46;102104.56;1723009;82;21080;-67
2022/03/16 05:16:31;;;;;;;3.85;2.00;;;;;;;-1.38;62.40;102097.99;1723943;82;21043;-65
2022/03/16 05:18:59;;;;;;;4.62;2.00;;;;;;;-1.33;62.32;102093.17;1722443;82;21134;-65
2022/03/16 05:21:26;;;;;;;3.70;2.05;;;;;;;-1.29;62.25;102097.98;1723222;82;21287;-66
2022/03/16 05:23:53;;;;;;;4.62;2.33;;;;;;;-1.22;62.16;102091.69;1719213;81;21103;-66
2022/03/16 05:26:20;;;;;;;5.72;2.47;;;;;;;-1.16;61.98;102099.48;1726373;81;21088;-66
2022/03/16 05:28:48;;;;;;;4.53;2.27;;;;;;;-1.11;61.89;102094.16;1722660;82;21047;-66
2022/03/16 05:31:15;;;;;;;4.08;1.92;;;;;;;-1.07;61.84;102092.08;1718417;82;21143;-65
2022/03/16 05:33:42;;;;;;;4.47;2.20;;;;;;;-1.03;61.70;102096.06;1721657;82;21141;-67
2022/03/16 05:36:11;;;;;;;3.98;2.15;;;;;;;-1.00;61.64;102104.47;1721487;82;21001;-66
2022/03/16 05:38:39;;;;;;;4.12;2.17;;;;;;;-0.96;61.60;102100.58;1719400;82;21021;-68
2022/03/16 05:41:06;;;;;;;4.90;2.12;;;;;;;-0.90;61.56;102102.30;1720448;82;21036;-66
2022/03/16 05:43:34;;;;;;;5.28;2.45;;;;;;;-0.81;61.49;102101.45;1735317;82;21099;-68
2022/03/16 05:46:01;;;;;;;4.78;2.35;;;;;;;-0.72;61.31;102104.52;1737565;82;21254;-67
2022/03/16 05:48:29;;;;;;;4.00;2.30;;;;;;;-0.64;61.20;102107.23;1725665;82;20974;-67
2022/03/16 05:50:57;;;;;;;6.28;2.47;;;;;;;-0.53;61.04;102110.15;1724014;82;20953;-68
2022/03/16 05:53:24;;;;;;;4.45;2.42;;;;;;;-0.51;60.84;102106.41;1719428;82;21052;-67
2022/03/16 05:55:52;;;;;;;4.55;2.40;;;;;;;-0.41;60.71;102102.43;1725504;82;21040;-66
2022/03/16 05:58:18;;;;;;;4.37;2.20;;;;;;;-0.18;60.49;102107.27;1755755;80;21123;-66
2022/03/16 06:00:45;;;;;;;4.80;2.70;;;;;;;-0.18;60.49;102107.27;1761879;80;21604;-67
2022/03/16 06:03:13;;;;;;;6.65;2.33;;;;;;;-0.08;59.75;102098.34;1754909;80;21089;-67
2022/03/16 06:05:40;;;;;;;4.42;2.30;;;;;;;-0.08;59.75;102098.34;1760018;80;21050;-67
2022/03/16 06:08:07;;;;;;;5.58;2.80;;;;;;;0.01;59.65;102094.51;1762567;80;21148;-68
2022/03/16 06:10:36;;;;;;;3.67;2.15;;;;;;;0.08;59.40;102108.20;1759497;80;21518;-67
2022/03/16 06:13:05;;;;;;;4.62;2.50;;;;;;;0.16;59.23;102104.81;1758466;80;21098;-69
2022/03/16 06:15:41;;;;;;;4.80;2.35;;;;;;;0.27;59.06;102109.03;1756051;80;21051;-68
2022/03/16 06:18:11;;;;;;;5.45;2.85;;;;;;;0.34;58.70;102110.90;1757705;80;21015;-67
2022/03/16 06:20:39;;;;;;;5.20;2.60;;;;;;;0.43;58.33;102119.69;1743704;82;21027;-68
2022/03/16 06:23:06;;;;;;;5.50;2.85;;;;;;;0.50;57.83;102115.47;1764906;79;21526;-67
2022/03/16 06:25:34;;;;;;;5.08;2.65;;;;;;;0.58;57.85;102114.70;1764335;80;21063;-68
2022/03/16 06:28:04;;;;;;;4.83;2.70;;;;;;;0.65;57.83;102115.24;1757844;80;21038;-67
2022/03/16 06:30:32;;;;;;;5.22;2.77;;;;;;;0.75;57.45;102115.64;1760901;80;21086;-68
2022/03/16 06:32:59;;;;;;;6.30;2.92;;;;;;;0.85;57.09;102114.55;1762187;80;21065;-67
2022/03/16 06:35:26;;;;;;;5.30;2.92;;;;;;;0.97;56.91;102118.27;1758344;80;21111;-67
2022/03/16 06:37:53;;;;;;;5.78;3.20;;;;;;;1.08;56.52;102115.35;1766460;80;21078;-68
2022/03/16 06:40:20;;;;;;;5.83;3.27;;;;;;;1.16;56.14;102116.73;1754396;80;21125;-67
2022/03/16 06:42:57;;;;;;;6.17;3.20;;;;;;;1.27;55.78;102120.39;1756967;80;21049;-68
2022/03/16 06:45:26;;;;;;;5.30;2.62;;;;;;;1.33;55.45;102128.16;1757524;80;21490;-68
2022/03/16 06:47:58;;;;;;;5.47;2.60;;;;;;;1.42;55.09;102121.14;1766644;79;21857;-67
2022/03/16 06:50:25;;;;;;;6.37;2.58;;;;;;;1.47;54.75;102118.84;1762540;80;20951;-66
2022/03/16 06:52:54;;;;;;;5.30;2.85;;;;;;;1.51;54.55;102117.03;1771713;80;21078;-68
2022/03/16 06:55:21;;;;;;;5.58;2.75;;;;;;;1.54;54.24;102123.30;1777406;79;21197;-68
2022/03/16 06:57:48;;;;;;;4.83;2.80;;;;;;;1.60;54.15;102123.17;1770888;80;21034;-67
2022/03/16 07:00:15;;;;;;;6.33;3.15;;;;;;;1.69;53.92;102118.27;1764078;79;21451;-68
2022/03/16 07:03:07;;;;;;;5.03;2.50;;;;;;;1.77;53.77;102114.83;1759124;80;21082;-65
2022/03/16 07:05:37;;;;;;;5.20;2.60;;;;;;;1.93;53.62;102114.87;1773149;80;21035;-67
2022/03/16 07:08:07;;;;;;;5.53;2.65;;;;;;;2.09;53.29;102120.17;1759597;80;21016;-67
2022/03/16 07:10:37;;;;;;;5.17;2.70;;;;;;;2.24;52.52;102124.82;1777093;80;21083;-68
2022/03/16 07:13:06;;;;;;;6.05;2.95;;;;;;;2.32;52.07;102119.54;1766818;80;20999;-68
2022/03/16 07:15:35;;;;;;;5.28;2.80;;;;;;;2.38;51.61;102120.70;1760519;80;21063;-68
2022/03/16 07:18:02;;;;;;;4.17;2.70;;;;;;;2.48;51.62;102124.82;1755243;80;21328;-67
2022/03/16 07:20:30;;;;;;;5.03;2.37;;;;;;;2.64;51.43;102124.00;1764476;80;21109;-67
2022/03/16 07:23:12;;;;;;;3.67;2.12;;;;;;;2.78;51.11;102129.91;1760914;80;21037;-68
2022/03/16 07:25:41;;;;;;;2.80;1.55;;;;;;;2.94;50.59;102128.25;1742906;80;21121;-68
2022/03/16 07:28:10;;;;;;;5.25;2.42;;;;;;;3.09;49.58;102126.55;1756175;80;21176;-69
2022/03/16 07:30:38;;;;;;;4.25;2.25;;;;;;;3.21;48.79;102122.56;1749752;80;21039;-67
2022/03/16 07:33:06;;;;;;;4.30;2.27;;;;;;;3.29;48.13;102123.02;1748780;80;21577;-69
2022/03/16 07:35:34;;;;;;;4.90;2.50;;;;;;;3.41;47.88;102123.49;1758050;80;20974;-71
2022/03/16 07:38:03;;;;;;;4.05;2.37;;;;;;;3.48;47.70;102123.95;1759434;80;21089;-70
2022/03/16 07:40:33;;;;;;;4.22;2.70;;;;;;;3.51;47.29;102124.93;1766698;80;21483;-68
2022/03/16 07:43:00;;;;;;;4.00;2.22;;;;;;;3.47;47.11;102126.27;1759523;80;21004;-68
2022/03/16 07:45:27;;;;;;;4.67;2.60;;;;;;;3.49;47.41;102125.61;1760349;79;21075;-68
2022/03/16 07:47:56;;;;;;;4.60;2.55;;;;;;;3.53;47.04;102120.31;1740494;80;21066;-68
2022/03/16 07:50:26;;;;;;;4.37;2.47;;;;;;;3.55;47.31;102124.08;1756717;80;21126;-70
2022/03/16 07:52:53;;;;;;;5.60;2.67;;;;;;;3.67;47.29;102125.36;1750155;79;20956;-69
2022/03/16 07:55:20;;;;;;;5.05;2.60;;;;;;;3.72;47.31;102123.03;1761452;80;21060;-66
2022/03/16 07:57:47;;;;;;;5.83;2.87;;;;;;;3.72;47.28;102124.86;1758911;80;21084;-68
2022/03/16 08:00:16;;;;;;;4.45;2.58;;;;;;;3.75;47.32;102125.33;1777139;80;21066;-69
2022/03/16 08:02:44;;;;;;;4.65;2.77;;;;;;;3.79;47.18;102127.63;1771889;80;21490;-69
2022/03/16 08:05:12;;;;;;;4.50;2.60;;;;;;;3.79;47.07;102115.23;1756706;80;21105;-69
2022/03/16 08:07:39;;;;;;;4.75;2.45;;;;;;;3.85;47.12;102116.34;1772567;80;21031;-69
2022/03/16 08:10:08;;;;;;;4.90;2.65;;;;;;;3.93;47.13;102114.48;1791782;79;21479;-68
2022/03/16 08:12:36;;;;;;;5.15;2.60;;;;;;;3.96;46.61;102114.14;1808565;79;21124;-68
2022/03/16 08:15:06;;;;;;;4.75;2.40;;;;;;;4.01;46.58;102114.92;1786995;79;20968;-68
2022/03/16 08:17:33;;;;;;;5.15;2.60;;;;;;;4.08;45.22;102112.40;1772442;79;21146;-68
2022/03/16 08:20:01;;;;;;;4.37;2.52;;;;;;;4.18;45.17;102113.02;1762950;80;20995;-68
2022/03/16 08:22:30;;;;;;;4.30;2.33;;;;;;;4.27;44.08;102107.14;1763369;80;21011;-69
2022/03/16 08:24:59;;;;;;;4.05;2.12;;;;;;;4.28;43.02;102114.07;1776864;80;21451;-69
2022/03/16 08:27:26;;;;;;;4.10;2.12;;;;;;;4.27;42.96;102116.41;1767216;80;21107;-68
2022/03/16 08:29:54;;;;;;;3.52;1.72;;;;;;;4.27;43.05;102113.25;1760615;80;21077;-67
2022/03/16 08:32:21;;;;;;;4.33;2.30;;;;;;;4.31;42.64;102114.57;1761943;80;21383;-68
2022/03/16 08:34:50;;;;;;;4.17;1.90;;;;;;;4.35;42.09;102107.10;1754527;80;21145;-68
2022/03/16 08:37:18;;;;;;;4.78;2.10;;;;;;;4.32;41.45;102114.88;1757637;79;21065;-67
2022/03/16 08:39:45;;;;;;;3.67;1.80;;;;;;;4.31;41.37;102109.75;1759804;79;21114;-68
2022/03/16 08:42:13;;;;;;;3.50;1.60;;;;;;;4.37;40.54;102107.22;1757968;80;21162;-67
2022/03/16 08:44:46;;;;;;;3.85;2.00;;;;;;;4.43;40.49;102107.84;1768830;80;21001;-69
2022/03/16 08:47:11;;;;;;;4.17;1.70;;;;;;;4.52;40.08;102118.37;1791731;79;21592;-67
2022/03/16 08:49:41;;;;;;;3.50;2.00;;;;;;;4.61;40.07;102113.33;1785945;79;21034;-68
2022/03/16 08:52:09;;;;;;;3.80;1.98;;;;;;;4.72;39.75;102119.50;1758253;80;21561;-67
2022/03/16 08:54:38;;;;;;;3.42;1.80;;;;;;;4.81;40.17;102118.44;1765418;80;20988;-67
2022/03/16 08:57:05;;;;;;;3.72;2.00;;;;;;;4.91;39.39;102111.05;1755930;80;21895;-68
2022/03/16 08:59:34;;;;;;;5.00;2.05;;;;;;;4.98;39.21;102107.17;1760548;80;21082;-68
2022/03/16 09:02:05;;;;;;;3.45;1.67;;;;;;;4.97;38.56;102113.95;1763071;80;38082;-68
2022/03/16 09:04:34;;;;;;;4.12;2.10;;;;;;;4.94;38.63;102113.84;1756436;80;21144;-69
2022/03/16 09:07:06;;;;;;;4.10;2.12;;;;;;;4.97;38.37;102117.93;1761829;80;21027;-69
2022/03/16 09:09:30;;;;;;;3.35;1.75;;;;;;;4.94;38.00;102115.98;1774898;79;21070;-69
2022/03/16 09:12:01;;;;;;;3.62;2.00;;;;;;;4.94;37.60;102114.66;1710699;82;21137;-68
2022/03/16 09:14:30;;;;;;;3.75;2.10;;;;;;;4.94;36.91;102116.49;1729779;82;21029;-68
2022/03/16 09:16:57;;;;;;;3.60;2.00;;;;;;;4.97;36.83;102120.58;1723698;82;21298;-67
2022/03/16 09:19:24;;;;;;;4.05;2.10;;;;;;;4.98;37.38;102121.73;1772358;80;21070;-67
2022/03/16 09:21:52;;;;;;;3.15;1.87;;;;;;;5.04;37.49;102114.91;1757384;80;21012;-68
2022/03/16 09:24:20;;;;;;;2.98;1.90;;;;;;;5.03;37.66;102119.86;1759084;79;20979;-68
2022/03/16 09:26:48;;;;;;;3.58;1.87;;;;;;;5.06;37.50;102113.69;1761839;80;21003;-68
2022/03/16 09:29:16;;;;;;;3.42;1.70;;;;;;;5.19;37.45;102118.36;1762214;80;21388;-69
2022/03/16 09:31:46;;;;;;;3.40;1.77;;;;;;;5.32;36.79;102111.91;1777753;80;21562;-68
2022/03/16 09:34:14;;;;;;;3.62;1.80;;;;;;;5.43;35.78;102113.77;1774976;80;20965;-68
2022/03/16 09:36:45;;;;;;;3.87;2.00;;;;;;;5.44;35.48;102119.41;1758859;79;21424;-68
2022/03/16 09:39:11;;;;;;;3.98;2.00;;;;;;;5.40;35.41;102115.80;1791311;79;21011;-68
2022/03/16 09:41:38;;;;;;;3.80;1.67;;;;;;;5.43;35.87;102121.72;1810970;79;21079;-67
2022/03/16 09:44:06;;;;;;;3.27;1.60;;;;;;;5.47;34.88;102119.86;1776626;79;21013;-68
2022/03/16 09:46:36;;;;;;;3.55;1.65;;;;;;;5.62;34.97;102117.17;1787608;79;20979;-69
2022/03/16 09:49:05;;;;;;;3.35;1.65;;;;;;;5.70;34.70;102122.39;1777369;80;21042;-68
2022/03/16 09:51:38;;;;;;;4.37;1.70;;;;;;;5.74;34.34;102113.55;1776636;80;20940;-68
2022/03/16 09:54:09;;;;;;;3.58;1.85;;;;;;;5.77;34.54;102115.84;1774741;80;21147;-67
2022/03/16 09:56:34;;;;;;;3.25;1.67;;;;;;;5.73;33.90;102123.34;1776572;79;21018;-68
2022/03/16 09:59:01;;;;;;;3.62;1.80;;;;;;;5.66;33.75;102129.08;1771079;80;20979;-68
2022/03/16 10:01:29;;;;;;;3.75;1.85;;;;;;;5.70;34.63;102132.17;1776534;79;21070;-68
2022/03/16 10:03:59;;;;;;;2.77;1.67;;;;;;;5.71;33.80;102135.95;1779420;79;21011;-68
2022/03/16 10:06:26;;;;;;;3.87;1.90;;;;;;;5.66;34.20;102127.75;1774657;80;21213;-69
2022/03/16 10:14:26;;;;;;;4.95;1.98;;;;;;;5.73;33.27;102139.25;1746721;82;21079;-68
2022/03/16 10:19:50;;;;;;;3.12;1.90;;;;;;;5.71;34.58;102134.63;1768913;80;21478;-67
2022/03/16 10:22:26;;;;;;;3.45;2.15;;;;;;;5.76;34.03;102139.36;1764896;80;21000;-68
2022/03/16 10:25:06;;;;;;;5.10;2.25;;;;;;;5.80;35.13;102136.67;1766649;81;21043;-67
2022/03/16 10:27:38;;;;;;;4.78;2.83;;;;;;;5.92;35.96;102137.00;1771589;80;21012;-67
2022/03/16 10:30:09;;;;;;;4.30;2.33;;;;;;;5.94;35.78;102141.14;1777789;80;21011;-68
2022/03/16 10:32:36;;;;;;;4.58;2.60;;;;;;;5.94;36.91;102131.05;1756873;80;21120;-68
2022/03/16 10:35:06;;;;;;;5.17;2.58;;;;;;;5.94;37.49;102136.34;1761240;80;20933;-69
2022/03/16 10:37:38;;;;;;;4.75;2.60;;;;;;;5.96;37.91;102139.65;1759840;79;21134;-68
2022/03/16 10:40:14;;;;;;;;;;;;;;;6.02;37.92;102134.89;1765274;80;21040;-69
2022/03/16 10:48:18;;;;;;;4.22;2.50;;;;;;;6.49;38.03;102128.22;1755698;80;21043;-68
2022/03/16 10:50:47;;;;;;;3.70;1.90;;;;;;;6.70;37.55;102123.38;1762006;80;21079;-68
2022/03/16 10:53:16;;;;;;;5.03;2.40;;;;;;;6.86;37.22;102127.59;1757396;80;21101;-68
2022/03/16 10:55:45;;;;;;;4.97;2.40;;;;;;;6.84;36.06;102125.11;1752012;80;21121;-68
2022/03/16 10:58:14;;;;;;;3.75;2.30;;;;;;;6.59;36.07;102128.72;1759224;80;21213;-68
2022/03/16 11:00:42;;;;;;;3.60;2.05;;;;;;;6.39;36.64;102134.36;1769181;80;21531;-68
2022/03/16 11:03:16;;;;;;;3.80;2.10;;;;;;;6.28;36.06;102135.16;1790124;79;21016;-68
2022/03/16 11:05:44;;;;;;;4.37;2.00;;;;;;;6.11;35.57;102131.94;1764049;80;20999;-69
2022/03/16 11:08:12;;;;;;;3.98;2.20;;;;;;;5.90;35.27;102133.22;1763589;80;20996;-68
2022/03/16 11:10:42;;;;;;;5.12;1.75;;;;;;;5.80;35.54;102130.87;1755990;80;21515;-68
2022/03/16 11:13:30;;;;;;;3.70;1.98;;;;;;;5.82;35.30;102135.97;1766912;79;21007;-68
2022/03/16 11:15:59;;;;;;;4.10;1.92;;;;;;;5.94;34.93;102130.53;1757078;80;21644;-68
2022/03/16 11:18:28;;;;;;;4.33;2.10;;;;;;;6.11;35.28;102128.47;1758429;80;21105;-68
2022/03/16 11:21:03;;;;;;;3.58;1.80;;;;;;;6.27;34.82;102126.08;1756383;80;21201;-69
2022/03/16 11:26:54;;;;;;;3.70;1.90;;;;;;;6.17;32.93;102130.37;1757073;80;21153;-68
2022/03/16 11:30:02;;;;;;;3.30;1.90;;;;;;;6.14;33.33;102131.25;1742798;80;21102;-69
2022/03/16 11:32:38;;;;;;;3.42;1.67;;;;;;;6.21;33.00;102117.55;1774931;79;21031;-69
2022/03/16 11:35:15;;;;;;;4.08;1.60;;;;;;;6.28;32.75;102122.41;1744405;81;21099;-68
2022/03/16 11:37:47;;;;;;;3.45;1.77;;;;;;;6.32;32.25;102113.89;1769496;80;21227;-68
2022/03/16 11:40:23;;;;;;;3.60;1.70;;;;;;;6.35;31.89;102123.31;1759424;79;20997;-68
2022/03/16 11:43:11;;;;;;;3.35;1.75;;;;;;;6.36;31.70;102117.48;1758376;79;21538;-68
2022/03/16 11:45:50;;;;;;;3.17;1.62;;;;;;;6.30;30.22;102102.62;1761170;80;22142;-68
2022/03/16 11:48:33;;;;;;;2.92;1.45;;;;;;;6.27;30.76;102107.50;1754750;80;21079;-68
2022/03/16 11:51:14;;;;;;;3.33;1.40;;;;;;;6.37;30.50;102107.18;1774561;80;21057;-68
2022/03/16 11:54:02;;;;;;;2.83;1.65;;;;;;;6.47;30.01;102105.02;1753563;80;21071;-67